Keego Harbor, Michigan
Current Conditions -  °F | °C
As of 11:53 PM on Friday 19 Dec 2014 (Local Time) from KPTK Reporting Station
Clear Clear  
Wind Chill: 20°   Ceiling: Unl
Heat Index: 20°   Visibility: 10mi
Dew Point: 17°   Wind: 0mph
Humidity: 89%   Direction: NA
Pressure: 30.26"   Gusts: NA
Location:  42.61°N, 83.34°W
Report Text: KPTK 200453Z 00000KT 10SM CLR M07/M08 A3026 RMK AO2 SLP261 LAST AUGMENTED OBS NEXT 11Z I1000 T10671083 410061072
Loading
Personal Weather Stations






























Interactive Weather Map New forecast layout! Learn more

10-Day Weather Forecast

Advertisements
Track Severe Weather on mobile